createdAt,value
2018-01-27T00:01:02.324Z,21.00
2018-01-27T00:03:30.662Z,23.00
2018-01-27T00:05:58.974Z,16.35
2018-01-27T00:08:27.315Z,16.57
2018-01-27T00:10:55.633Z,12.20
2018-01-27T00:13:23.963Z,15.02
2018-01-27T00:15:52.291Z,25.43
2018-01-27T00:18:20.626Z,17.93
2018-01-27T00:20:48.938Z,19.55
2018-01-27T00:23:17.278Z,18.03
2018-01-27T00:25:45.598Z,22.95
2018-01-27T00:28:13.925Z,14.17
2018-01-27T00:30:42.241Z,17.88
2018-01-27T00:33:10.566Z,14.13
2018-01-27T00:35:38.870Z,13.40
2018-01-27T00:38:07.200Z,13.17
2018-01-27T00:40:35.514Z,14.02
2018-01-27T00:43:03.827Z,12.63
2018-01-27T00:45:32.167Z,16.60
2018-01-27T00:48:00.474Z,17.55
2018-01-27T00:50:28.802Z,17.87
2018-01-27T00:52:57.105Z,13.23
2018-01-27T00:55:25.443Z,13.25
2018-01-27T00:57:53.754Z,15.88
2018-01-27T01:00:22.094Z,15.08
2018-01-27T01:02:50.410Z,15.22
2018-01-27T01:05:18.746Z,14.38
2018-01-27T01:07:47.058Z,14.22
2018-01-27T01:10:15.396Z,13.47
2018-01-27T01:12:43.706Z,15.07
2018-01-27T01:15:12.027Z,14.17
2018-01-27T01:17:40.342Z,12.68
2018-01-27T01:20:08.681Z,13.80
2018-01-27T01:22:36.983Z,12.75
2018-01-27T01:25:05.319Z,14.57
2018-01-27T01:27:33.630Z,17.28
2018-01-27T01:30:01.957Z,12.73
2018-01-27T01:32:30.267Z,12.10
2018-01-27T01:34:58.604Z,12.08
2018-01-27T01:37:26.926Z,12.10
2018-01-27T01:39:55.255Z,13.70
2018-01-27T01:42:29.371Z,18.35
2018-01-27T01:44:57.723Z,16.65
2018-01-27T01:47:26.042Z,16.78
2018-01-27T01:49:54.378Z,14.43
2018-01-27T01:52:22.687Z,13.42
2018-01-27T01:54:51.028Z,15.00
2018-01-27T01:57:19.341Z,16.68
2018-01-27T01:59:47.677Z,16.87
2018-01-27T02:02:15.987Z,24.57
2018-01-27T02:04:44.324Z,18.65
2018-01-27T02:07:12.631Z,13.40
2018-01-27T02:09:40.964Z,37.25
2018-01-27T02:12:09.271Z,26.62
2018-01-27T02:14:37.582Z,26.40
2018-01-27T02:17:05.923Z,58.98
2018-01-27T02:19:34.243Z,54.78
2018-01-27T02:22:02.582Z,48.18
2018-01-27T02:24:30.898Z,44.53
2018-01-27T02:26:59.234Z,14.58
2018-01-27T02:29:27.542Z,46.83
2018-01-27T02:31:55.867Z,33.45
2018-01-27T02:34:24.184Z,28.68
2018-01-27T02:36:52.520Z,30.15
2018-01-27T02:39:20.834Z,55.03
2018-01-27T02:41:49.159Z,18.00
2018-01-27T02:44:16.704Z,33.33
2018-01-27T02:46:45.048Z,73.58
2018-01-27T02:49:13.388Z,44.80
2018-01-27T02:51:41.727Z,21.65
2018-01-27T02:54:10.039Z,23.05
2018-01-27T02:56:38.367Z,31.32
2018-01-27T02:59:06.674Z,33.18
2018-01-27T03:01:35.001Z,26.48
2018-01-27T03:04:03.320Z,16.57
2018-01-27T03:06:31.655Z,21.98
2018-01-27T03:08:59.969Z,20.72
2018-01-27T03:11:28.302Z,27.10
2018-01-27T03:13:56.620Z,22.42
2018-01-27T03:16:24.950Z,19.85
2018-01-27T03:18:53.269Z,14.82
2018-01-27T03:21:21.602Z,21.67
2018-01-27T03:23:49.921Z,28.15
2018-01-27T03:26:18.255Z,33.60
2018-01-27T03:28:46.570Z,27.05
2018-01-27T03:31:14.910Z,36.00
2018-01-27T03:33:43.229Z,38.52
2018-01-27T03:36:11.562Z,36.35
2018-01-27T03:38:39.877Z,46.38
2018-01-27T03:41:08.238Z,41.78
2018-01-27T03:43:36.550Z,23.28
2018-01-27T03:46:04.878Z,22.02
2018-01-27T03:48:33.188Z,19.17
2018-01-27T03:51:01.535Z,21.87
2018-01-27T03:53:29.852Z,24.67
2018-01-27T03:55:58.194Z,31.73
2018-01-27T03:58:26.508Z,24.15
2018-01-27T04:00:54.838Z,30.78
2018-01-27T04:03:23.172Z,23.42
2018-01-27T04:05:51.483Z,26.02
2018-01-27T04:08:19.815Z,16.42
2018-01-27T04:10:48.119Z,34.82
2018-01-27T04:13:16.463Z,22.18
2018-01-27T04:15:44.772Z,19.52
2018-01-27T04:18:13.139Z,17.92
2018-01-27T04:20:41.455Z,17.07
2018-01-27T04:23:09.800Z,22.10
2018-01-27T04:25:38.136Z,34.77
2018-01-27T04:28:06.471Z,24.37
2018-01-27T04:30:34.815Z,41.28
2018-01-27T04:33:03.138Z,22.47
2018-01-27T04:35:31.457Z,23.40
2018-01-27T04:37:59.793Z,32.77
2018-01-27T04:40:28.102Z,36.13
2018-01-27T04:42:56.434Z,21.05
2018-01-27T04:45:24.762Z,39.35
2018-01-27T04:47:53.102Z,27.28
2018-01-27T04:50:21.410Z,22.88
2018-01-27T04:52:49.742Z,25.05
2018-01-27T04:55:18.047Z,29.18
2018-01-27T04:57:46.388Z,57.23
2018-01-27T05:00:14.704Z,41.52
2018-01-27T05:02:43.055Z,41.48
2018-01-27T05:05:11.361Z,34.75
2018-01-27T05:07:39.703Z,42.20
2018-01-27T05:10:08.016Z,57.33
2018-01-27T05:12:36.348Z,24.83
2018-01-27T05:15:04.656Z,30.45
2018-01-27T05:17:32.986Z,48.13
2018-01-27T05:20:01.303Z,22.60
2018-01-27T05:22:28.866Z,29.78
2018-01-27T05:24:57.183Z,28.37
2018-01-27T05:27:25.525Z,25.83
2018-01-27T05:29:53.846Z,25.30
2018-01-27T05:32:22.185Z,31.33
2018-01-27T05:34:50.495Z,27.55
2018-01-27T05:37:18.835Z,17.33
2018-01-27T05:39:47.166Z,25.82
2018-01-27T05:42:15.475Z,26.95
2018-01-27T05:44:43.814Z,23.05
2018-01-27T05:47:12.135Z,20.47
2018-01-27T05:49:40.473Z,15.92
2018-01-27T05:52:08.776Z,27.67
2018-01-27T05:54:37.155Z,33.07
2018-01-27T05:57:05.458Z,33.83
2018-01-27T05:59:33.795Z,16.93
2018-01-27T06:02:02.127Z,15.72
2018-01-27T06:04:30.464Z,18.38
2018-01-27T06:06:58.774Z,17.30
2018-01-27T06:09:27.103Z,21.28
2018-01-27T06:11:55.422Z,22.20
2018-01-27T06:14:23.763Z,23.68
2018-01-27T06:16:52.077Z,24.75
2018-01-27T06:19:20.419Z,22.87
2018-01-27T06:21:48.750Z,19.32
2018-01-27T06:24:17.091Z,22.75
2018-01-27T06:26:45.408Z,22.03
2018-01-27T06:29:13.738Z,18.88
2018-01-27T06:31:42.051Z,24.83
2018-01-27T06:34:10.386Z,20.07
2018-01-27T06:36:38.702Z,19.82
2018-01-27T06:39:07.043Z,20.37
2018-01-27T06:41:35.354Z,22.72
2018-01-27T06:44:03.696Z,20.62
2018-01-27T06:46:32.016Z,22.38
2018-01-27T06:49:00.342Z,18.08
2018-01-27T06:51:28.666Z,24.02
2018-01-27T06:53:57.001Z,24.98
2018-01-27T06:56:25.315Z,30.47
2018-01-27T06:58:53.654Z,26.93
2018-01-27T07:01:21.963Z,19.93
2018-01-27T07:03:50.307Z,15.87
2018-01-27T07:06:18.624Z,21.52
2018-01-27T07:08:46.972Z,27.15
2018-01-27T07:11:15.291Z,26.48
2018-01-27T07:13:43.618Z,23.72
2018-01-27T07:16:11.936Z,35.35
2018-01-27T07:18:40.250Z,29.98
2018-01-27T07:21:08.591Z,27.05
2018-01-27T07:23:36.902Z,36.25
2018-01-27T07:26:05.238Z,23.68
2018-01-27T07:28:33.556Z,52.85
2018-01-27T07:31:01.888Z,35.28
2018-01-27T07:33:30.215Z,23.67
2018-01-27T07:35:58.555Z,22.90
2018-01-27T07:38:26.107Z,31.77
2018-01-27T07:40:54.447Z,35.05
2018-01-27T07:43:22.762Z,34.15
2018-01-27T07:45:51.095Z,33.43
2018-01-27T07:48:19.413Z,28.80
2018-01-27T07:50:47.743Z,26.02
2018-01-27T07:53:16.053Z,34.27
2018-01-27T07:55:44.396Z,28.25
2018-01-27T07:58:12.713Z,28.08
2018-01-27T08:00:41.060Z,25.35
2018-01-27T08:03:09.391Z,20.60
2018-01-27T08:05:37.752Z,23.17
2018-01-27T08:08:06.067Z,23.33
2018-01-27T08:10:34.467Z,20.02
2018-01-27T08:13:02.782Z,31.68
2018-01-27T08:15:31.114Z,33.45
2018-01-27T08:17:59.438Z,26.78
2018-01-27T08:20:27.782Z,26.78
2018-01-27T08:22:56.106Z,28.75
2018-01-27T08:25:24.441Z,25.18
2018-01-27T08:27:52.760Z,28.48
2018-01-27T08:30:21.094Z,28.53
2018-01-27T08:32:49.403Z,32.27
2018-01-27T08:35:17.746Z,29.78
2018-01-27T08:37:46.067Z,25.35
2018-01-27T08:40:14.392Z,26.65
2018-01-27T08:42:42.708Z,27.02
2018-01-27T08:45:11.044Z,29.32
2018-01-27T08:47:39.360Z,31.53
2018-01-27T08:50:07.700Z,62.20
2018-01-27T08:52:36.017Z,32.50
2018-01-27T08:55:04.351Z,28.15
2018-01-27T08:57:32.679Z,30.15
2018-01-27T09:00:00.990Z,26.98
2018-01-27T09:02:29.319Z,27.32
2018-01-27T09:04:57.626Z,28.93
2018-01-27T09:07:25.966Z,30.25
2018-01-27T09:09:54.275Z,28.88
2018-01-27T09:12:22.604Z,25.87
2018-01-27T09:14:50.926Z,25.75
2018-01-27T09:17:19.263Z,30.60
2018-01-27T09:19:47.580Z,34.75
2018-01-27T09:22:15.921Z,51.70
2018-01-27T09:24:44.230Z,74.23
2018-01-27T09:27:12.563Z,101.08
2018-01-27T09:29:40.870Z,101.17
2018-01-27T09:32:09.206Z,43.97
2018-01-27T09:34:37.520Z,32.28
2018-01-27T09:37:05.862Z,38.93
2018-01-27T09:39:34.171Z,34.88
2018-01-27T09:42:02.511Z,41.42
2018-01-27T09:44:30.826Z,37.28
2018-01-27T09:46:59.155Z,37.77
2018-01-27T09:49:27.462Z,40.22
2018-01-27T09:51:55.814Z,37.53
2018-01-27T09:54:24.130Z,66.02
2018-01-27T09:56:51.705Z,41.03
2018-01-27T09:59:20.019Z,33.78
2018-01-27T10:01:48.515Z,45.25
2018-01-27T10:04:16.831Z,39.00
2018-01-27T10:06:45.170Z,31.45
2018-01-27T10:09:13.487Z,28.08
2018-01-27T10:11:41.822Z,29.17
2018-01-27T10:14:10.139Z,27.80
2018-01-27T10:16:38.480Z,28.50
2018-01-27T10:19:06.795Z,22.55
2018-01-27T10:21:35.123Z,54.47
2018-01-27T10:24:03.448Z,37.18
2018-01-27T10:26:31.782Z,25.63
2018-01-27T10:29:00.114Z,50.63
2018-01-27T10:31:28.456Z,24.65
2018-01-27T10:33:56.770Z,28.05
2018-01-27T10:36:25.113Z,24.75
2018-01-27T10:38:53.434Z,26.02
2018-01-27T10:41:21.748Z,21.50
2018-01-27T10:43:50.084Z,23.37
2018-01-27T10:46:18.402Z,22.78
2018-01-27T10:48:46.743Z,21.52
2018-01-27T10:51:15.067Z,22.20
2018-01-27T10:53:43.405Z,18.20
2018-01-27T10:56:11.720Z,18.03
2018-01-27T10:58:40.060Z,19.08
2018-01-27T11:01:08.382Z,23.77
2018-01-27T11:03:36.779Z,24.08
2018-01-27T11:06:05.098Z,19.97
2018-01-27T11:08:33.463Z,19.82
2018-01-27T11:11:01.789Z,22.93
2018-01-27T11:13:30.127Z,19.28
2018-01-27T11:15:58.448Z,20.42
2018-01-27T11:18:26.780Z,23.65
2018-01-27T11:20:55.098Z,17.95
2018-01-27T11:23:23.440Z,19.03
2018-01-27T11:25:51.755Z,19.77
2018-01-27T11:28:20.099Z,18.57
2018-01-27T11:30:48.423Z,18.08
2018-01-27T11:33:16.762Z,20.65
2018-01-27T11:35:45.080Z,19.58
2018-01-27T11:38:13.435Z,17.83
2018-01-27T11:40:41.762Z,13.02
2018-01-27T11:43:10.095Z,18.57
2018-01-27T11:45:38.406Z,13.80
2018-01-27T11:48:06.744Z,13.32
2018-01-27T11:50:35.067Z,14.05
2018-01-27T11:53:03.404Z,17.62
2018-01-27T11:55:31.726Z,12.70
2018-01-27T11:58:00.069Z,13.63
2018-01-27T12:00:28.384Z,6.55
2018-01-27T12:02:56.727Z,8.85
2018-01-27T12:05:25.058Z,10.98
2018-01-27T12:07:53.403Z,7.47
2018-01-27T12:10:21.720Z,8.70
2018-01-27T12:12:50.055Z,13.45
2018-01-27T12:15:18.379Z,10.85
2018-01-27T12:17:45.971Z,10.68
2018-01-27T12:20:14.310Z,13.42
2018-01-27T12:22:42.635Z,8.25
2018-01-27T12:25:10.970Z,11.58
2018-01-27T12:27:39.304Z,11.17
2018-01-27T12:30:07.659Z,11.84
2018-01-27T12:32:35.995Z,14.97
2018-01-27T12:35:04.333Z,11.97
2018-01-27T12:37:32.657Z,13.68
2018-01-27T12:40:01.012Z,15.43
2018-01-27T12:42:29.340Z,8.45
2018-01-27T12:44:57.690Z,9.90
2018-01-27T12:47:26.010Z,10.32
2018-01-27T12:49:54.365Z,10.15
2018-01-27T12:52:22.684Z,9.15
2018-01-27T12:54:51.023Z,13.63
2018-01-27T12:57:19.334Z,18.12
2018-01-27T12:59:47.680Z,16.43
2018-01-27T13:02:16.002Z,11.72
2018-01-27T13:04:44.343Z,8.02
2018-01-27T13:07:12.663Z,11.88
2018-01-27T13:09:41.006Z,11.77
2018-01-27T13:12:09.322Z,19.02
2018-01-27T13:14:37.671Z,7.78
2018-01-27T13:17:06.009Z,14.88
2018-01-27T13:19:34.365Z,9.75
2018-01-27T13:22:02.686Z,41.83
2018-01-27T13:24:31.039Z,9.06
2018-01-27T13:26:59.361Z,13.43
2018-01-27T13:29:27.708Z,10.17
2018-01-27T13:31:56.047Z,7.80
2018-01-27T13:34:24.395Z,8.13
2018-01-27T13:36:52.730Z,13.75
2018-01-27T13:39:21.093Z,27.97
2018-01-27T13:41:49.404Z,13.88
2018-01-27T13:44:17.753Z,10.80
2018-01-27T13:46:46.076Z,13.98
2018-01-27T13:49:14.416Z,22.47
2018-01-27T13:51:42.743Z,11.60
2018-01-27T13:54:11.087Z,14.47
2018-01-27T13:56:39.412Z,9.45
2018-01-27T13:59:07.730Z,12.40
2018-01-27T14:01:36.064Z,8.70
2018-01-27T14:04:04.385Z,7.88
2018-01-27T14:06:32.727Z,9.85
2018-01-27T14:09:01.355Z,8.45
2018-01-27T14:11:29.700Z,8.25
2018-01-27T14:13:58.063Z,9.05
2018-01-27T14:16:26.392Z,7.97
2018-01-27T14:18:54.726Z,14.63
2018-01-27T14:21:23.078Z,13.03
2018-01-27T14:23:51.393Z,11.03
2018-01-27T14:26:19.732Z,12.52
2018-01-27T14:28:48.059Z,29.73
2018-01-27T14:31:16.392Z,14.63
2018-01-27T14:33:44.711Z,11.75
2018-01-27T14:36:13.051Z,9.87
2018-01-27T14:38:41.362Z,10.03
2018-01-27T14:41:09.698Z,9.47
2018-01-27T14:43:38.023Z,12.82
2018-01-27T14:46:06.361Z,11.40
2018-01-27T14:48:34.668Z,8.93
2018-01-27T14:51:03.005Z,10.63
2018-01-27T14:53:31.319Z,9.72
2018-01-27T14:55:59.668Z,14.20
2018-01-27T14:58:27.983Z,9.25
2018-01-27T15:00:56.317Z,10.52
2018-01-27T15:03:24.634Z,10.90
2018-01-27T15:05:52.966Z,13.97
2018-01-27T15:08:21.288Z,11.12
2018-01-27T15:10:49.627Z,11.37
2018-01-27T15:13:17.945Z,13.25
2018-01-27T15:15:46.280Z,15.50
2018-01-27T15:18:13.851Z,13.05
2018-01-27T15:20:42.186Z,10.27
2018-01-27T15:23:10.497Z,13.27
2018-01-27T15:25:38.826Z,13.97
2018-01-27T15:28:07.159Z,14.70
2018-01-27T15:30:35.494Z,11.75
2018-01-27T15:33:03.822Z,12.48
2018-01-27T15:35:32.163Z,15.45
2018-01-27T15:38:00.479Z,17.35
2018-01-27T15:40:28.792Z,12.42
2018-01-27T15:42:57.157Z,16.37
2018-01-27T15:45:25.479Z,12.28
2018-01-27T15:47:53.807Z,10.75
2018-01-27T15:50:22.123Z,13.95
2018-01-27T15:52:50.480Z,18.25
2018-01-27T15:55:18.787Z,26.20
2018-01-27T15:57:47.122Z,71.13
2018-01-27T16:00:15.445Z,22.77
2018-01-27T16:02:43.785Z,57.45
2018-01-27T16:05:12.103Z,17.37
2018-01-27T16:07:40.438Z,15.10
2018-01-27T16:10:08.759Z,11.12
2018-01-27T16:12:37.090Z,13.43
2018-01-27T16:15:05.417Z,12.42
2018-01-27T16:17:33.768Z,14.33
2018-01-27T16:20:02.092Z,13.55
2018-01-27T16:22:30.432Z,18.35
2018-01-27T16:24:58.782Z,15.22
2018-01-27T16:27:27.128Z,44.22
2018-01-27T16:29:55.451Z,18.55
2018-01-27T16:32:23.791Z,19.10
2018-01-27T16:34:52.108Z,25.65
2018-01-27T16:37:20.443Z,27.53
2018-01-27T16:39:48.756Z,29.82
2018-01-27T16:42:17.735Z,23.85
2018-01-27T16:44:46.058Z,15.95
2018-01-27T16:47:14.395Z,22.50
2018-01-27T16:49:42.715Z,17.57
2018-01-27T16:52:11.057Z,29.37
2018-01-27T16:54:39.388Z,16.48
2018-01-27T16:57:07.743Z,17.08
2018-01-27T16:59:36.058Z,16.02
2018-01-27T17:02:04.390Z,12.73
2018-01-27T17:04:32.695Z,16.62
2018-01-27T17:07:01.028Z,17.57
2018-01-27T17:09:29.330Z,15.63
2018-01-27T17:11:57.671Z,13.68
2018-01-27T17:14:25.985Z,11.65
2018-01-27T17:16:54.283Z,15.23
2018-01-27T17:19:22.622Z,14.10
2018-01-27T17:21:50.937Z,16.13
2018-01-27T17:24:19.272Z,9.22
2018-01-27T17:26:47.582Z,12.60
2018-01-27T17:29:15.920Z,16.10
2018-01-27T17:31:44.242Z,18.03
2018-01-27T17:34:12.571Z,14.12
2018-01-27T17:36:40.880Z,14.87
2018-01-27T17:39:09.251Z,13.40
2018-01-27T17:41:37.553Z,17.02
2018-01-27T17:44:05.887Z,14.50
2018-01-27T17:46:34.206Z,18.55
2018-01-27T17:49:02.539Z,17.42
2018-01-27T17:51:30.857Z,14.85
2018-01-27T17:53:59.195Z,13.37
2018-01-27T17:56:27.513Z,13.45
2018-01-27T17:58:55.838Z,10.57
2018-01-27T18:01:24.173Z,14.02
2018-01-27T18:03:52.543Z,14.62
2018-01-27T18:06:20.851Z,14.40
2018-01-27T18:08:49.190Z,17.30
2018-01-27T18:11:17.497Z,14.23
2018-01-27T18:13:45.831Z,14.47
2018-01-27T18:16:13.374Z,13.67
2018-01-27T18:18:41.725Z,16.47
2018-01-27T18:21:10.039Z,16.87
2018-01-27T18:23:38.367Z,14.23
2018-01-27T18:26:06.680Z,19.57
2018-01-27T18:28:35.014Z,21.87
2018-01-27T18:31:03.325Z,13.68
2018-01-27T18:33:31.684Z,15.47
2018-01-27T18:35:59.998Z,14.62
2018-01-27T18:38:27.571Z,13.00
2018-01-27T18:40:55.884Z,13.33
2018-01-27T18:43:24.223Z,13.78
2018-01-27T18:45:52.531Z,16.80
2018-01-27T18:48:20.861Z,14.13
2018-01-27T18:50:49.198Z,15.22
2018-01-27T18:53:17.512Z,14.77
2018-01-27T18:55:45.848Z,13.15
2018-01-27T18:58:14.168Z,15.40
2018-01-27T19:00:42.498Z,12.52
2018-01-27T19:03:10.802Z,13.55
2018-01-27T19:05:39.165Z,14.90
2018-01-27T19:08:07.462Z,13.40
2018-01-27T19:10:35.798Z,13.35
2018-01-27T19:13:04.109Z,14.70
2018-01-27T19:15:32.447Z,14.95
2018-01-27T19:18:00.787Z,17.75
2018-01-27T19:20:29.122Z,17.50
2018-01-27T19:22:57.483Z,15.28
2018-01-27T19:25:25.824Z,15.53
2018-01-27T19:27:54.142Z,13.13
2018-01-27T19:30:22.475Z,14.45
2018-01-27T19:32:50.786Z,15.50
2018-01-27T19:35:19.129Z,17.77
2018-01-27T19:37:47.443Z,12.63
2018-01-27T19:40:15.810Z,11.05
2018-01-27T19:42:44.114Z,15.60
2018-01-27T19:45:12.654Z,15.02
2018-01-27T19:47:40.968Z,10.68
2018-01-27T19:50:09.306Z,13.32
2018-01-27T19:52:37.623Z,18.05
2018-01-27T19:55:05.962Z,20.58
2018-01-27T19:57:34.319Z,25.67
2018-01-27T20:00:02.664Z,18.87
2018-01-27T20:02:31.067Z,17.93
2018-01-27T20:04:59.414Z,16.98
2018-01-27T20:07:27.732Z,22.60
2018-01-27T20:09:56.091Z,16.03
2018-01-27T20:12:24.423Z,18.20
2018-01-27T20:14:52.762Z,26.32
2018-01-27T20:17:21.089Z,11.48
2018-01-27T20:19:49.402Z,15.07
2018-01-27T20:22:17.788Z,31.75
2018-01-27T20:24:46.112Z,19.00
2018-01-27T20:27:14.447Z,11.17
2018-01-27T20:29:42.772Z,31.82
2018-01-27T20:32:11.144Z,17.60
2018-01-27T20:34:39.475Z,14.72
2018-01-27T20:37:07.869Z,14.20
2018-01-27T20:39:36.204Z,12.53
2018-01-27T20:42:04.539Z,12.70
2018-01-27T20:44:33.141Z,12.52
2018-01-27T20:47:01.479Z,11.42
2018-01-27T20:49:29.795Z,11.75
2018-01-27T20:51:58.134Z,10.88
2018-01-27T20:54:26.454Z,9.72
2018-01-27T20:56:54.785Z,10.72
2018-01-27T20:59:23.105Z,10.78
2018-01-27T21:01:51.447Z,10.03
2018-01-27T21:04:19.752Z,8.35
2018-01-27T21:06:48.086Z,13.05
2018-01-27T21:09:16.396Z,11.67
2018-01-27T21:11:44.767Z,11.38
2018-01-27T21:14:13.078Z,8.97
2018-01-27T21:16:41.412Z,11.62
2018-01-27T21:19:09.724Z,11.53
2018-01-27T21:21:38.101Z,10.72
2018-01-27T21:24:06.418Z,11.05
2018-01-27T21:26:34.755Z,10.03
2018-01-27T21:29:03.076Z,11.97
2018-01-27T21:31:31.407Z,11.40
2018-01-27T21:33:59.722Z,10.58
2018-01-27T21:36:28.069Z,15.50
2018-01-27T21:38:56.386Z,11.37
2018-01-27T21:41:24.719Z,9.35
2018-01-27T21:43:52.262Z,10.38
2018-01-27T21:46:20.595Z,12.48
2018-01-27T21:48:48.914Z,10.35
2018-01-27T21:51:17.247Z,13.03
2018-01-27T21:53:45.559Z,11.17
2018-01-27T21:56:13.897Z,12.05
2018-01-27T21:58:42.217Z,11.28
2018-01-27T22:01:10.530Z,9.82
2018-01-27T22:03:38.858Z,11.73
2018-01-27T22:06:07.173Z,11.47
2018-01-27T22:08:35.515Z,12.83
2018-01-27T22:11:03.837Z,10.23
2018-01-27T22:13:32.174Z,13.37
2018-01-27T22:16:00.488Z,10.25
2018-01-27T22:18:28.827Z,11.58
2018-01-27T22:20:57.133Z,11.40
2018-01-27T22:23:25.463Z,10.45
2018-01-27T22:25:53.780Z,8.45
2018-01-27T22:28:22.119Z,9.78
2018-01-27T22:30:50.443Z,12.43
2018-01-27T22:33:18.775Z,12.42
2018-01-27T22:35:47.082Z,14.28
2018-01-27T22:38:15.419Z,8.45
2018-01-27T22:40:43.734Z,12.67
2018-01-27T22:43:12.088Z,14.48
2018-01-27T22:45:40.399Z,12.23
2018-01-27T22:48:08.730Z,13.60
2018-01-27T22:50:37.035Z,15.02
2018-01-27T22:53:05.365Z,13.08
2018-01-27T22:55:33.679Z,12.62
2018-01-27T22:58:02.010Z,14.88
2018-01-27T23:00:30.322Z,13.25
2018-01-27T23:02:58.660Z,12.58
2018-01-27T23:05:26.982Z,13.13
2018-01-27T23:07:55.321Z,16.97
2018-01-27T23:10:23.630Z,17.47
2018-01-27T23:12:51.974Z,11.83
2018-01-27T23:15:20.288Z,27.37
2018-01-27T23:17:48.636Z,19.65
2018-01-27T23:20:16.942Z,15.53
2018-01-27T23:22:45.274Z,16.65
2018-01-27T23:25:13.593Z,15.92
2018-01-27T23:27:41.947Z,15.02
2018-01-27T23:30:10.254Z,15.47
2018-01-27T23:32:38.589Z,15.60
2018-01-27T23:35:06.898Z,14.65
2018-01-27T23:37:35.239Z,16.72
2018-01-27T23:40:03.566Z,17.28
2018-01-27T23:42:31.888Z,16.80
2018-01-27T23:45:00.233Z,21.68
2018-01-27T23:47:28.549Z,16.93
2018-01-27T23:49:56.875Z,15.35
2018-01-27T23:52:25.183Z,22.83
2018-01-27T23:54:53.521Z,24.27
2018-01-27T23:57:21.843Z,15.72
2018-01-27T23:59:50.179Z,18.03
